Time;durP1;ratioP1;P1;durP2;ratioP2;P2;SDS_P1;SDS_P2;PMS_P1;PMS_P2;Temp;Humidity;BMP_temperature;BMP_pressure;BME280_temperature;BME280_humidity;BME280_pressure;Samples;Min_cycle;Max_cycle;Signal;HPM_P1;HPM_P2
2021/12/11 00:00:06;;;;;;;2.47;1.25;;;;;;;;;;4988110;28;20041;-60
2021/12/11 00:03:00;;;;;;;2.45;1.30;;;;;;;;;;4987192;28;20034;-60
2021/12/11 00:05:51;;;;;;;3.53;1.92;;;;;;;;;;4991261;28;20126;-61
2021/12/11 00:08:38;;;;;;;3.58;1.10;;;;;;;;;;4986621;28;20057;-62
2021/12/11 00:11:31;;;;;;;2.70;1.35;;;;;;;;;;4989096;28;20043;-61
2021/12/11 00:14:17;;;;;;;2.15;1.10;;;;;;;;;;4987339;28;20469;-61
2021/12/11 00:17:03;;;;;;;1.63;0.98;;;;;;;;;;4987936;28;20113;-61
2021/12/11 00:19:49;;;;;;;2.80;1.42;;;;;;;;;;4970251;28;20039;-64
2021/12/11 00:22:34;;;;;;;1.38;1.17;;;;;;;;;;4967368;28;20066;-61
2021/12/11 00:25:20;;;;;;;2.15;1.60;;;;;;;;;;4929708;28;20063;-63
2021/12/11 00:28:06;;;;;;;1.42;1.10;;;;;;;;;;4946780;29;20047;-64
2021/12/11 00:30:52;;;;;;;1.15;1.00;;;;;;;;;;4969667;28;20078;-61
2021/12/11 00:33:38;;;;;;;1.58;1.23;;;;;;;;;;4965965;28;20382;-60
2021/12/11 00:36:27;;;;;;;2.00;1.35;;;;;;;;;;4986943;28;20406;-62
2021/12/11 00:39:14;;;;;;;1.90;1.40;;;;;;;;;;4969562;28;20066;-62
2021/12/11 00:42:05;;;;;;;1.58;1.27;;;;;;;;;;4975537;28;20097;-60
2021/12/11 00:44:52;;;;;;;2.75;1.48;;;;;;;;;;4988941;28;20031;-62
2021/12/11 00:47:43;;;;;;;2.45;1.25;;;;;;;;;;4987303;28;20026;-60
2021/12/11 00:50:31;;;;;;;1.58;1.17;;;;;;;;;;4987409;28;20425;-60
2021/12/11 00:53:22;;;;;;;4.25;1.42;;;;;;;;;;4988126;28;20034;-60
2021/12/11 00:56:12;;;;;;;1.30;1.10;;;;;;;;;;4987350;28;20054;-64
2021/12/11 00:59:00;;;;;;;2.75;1.20;;;;;;;;;;4969007;28;20019;-62
2021/12/11 01:01:55;;;;;;;2.97;1.33;;;;;;;;;;4986307;28;20549;-64
2021/12/11 01:04:41;;;;;;;2.15;1.45;;;;;;;;;;4982659;28;20129;-64
2021/12/11 01:07:31;;;;;;;1.67;1.08;;;;;;;;;;4986431;28;20033;-64
2021/12/11 01:10:17;;;;;;;;;;;;;;;;;;4986233;28;20034;-65
2021/12/11 01:13:04;;;;;;;1.55;0.90;;;;;;;;;;4986924;28;19914;-64
2021/12/11 01:15:55;;;;;;;2.40;1.20;;;;;;;;;;4988478;28;20081;-62
2021/12/11 01:18:44;;;;;;;1.13;1.00;;;;;;;;;;4986848;28;20399;-60
2021/12/11 01:24:41;;;;;;;1.60;0.90;;;;;;;;;;4988448;28;20038;-60
2021/12/11 01:27:26;;;;;;;;;;;;;;;;;;4987723;28;20050;-60
2021/12/11 01:30:15;;;;;;;2.47;1.17;;;;;;;;;;4987068;28;20318;-64
2021/12/11 01:33:02;;;;;;;2.55;0.80;;;;;;;;;;4984984;28;20038;-64
2021/12/11 01:35:48;;;;;;;0.70;0.70;;;;;;;;;;4987062;28;20031;-65
2021/12/11 01:38:34;;;;;;;1.92;1.15;;;;;;;;;;4988217;28;20129;-61
2021/12/11 01:41:20;;;;;;;1.83;1.33;;;;;;;;;;4968589;28;20043;-66
2021/12/11 01:44:11;;;;;;;1.48;1.17;;;;;;;;;;4969178;28;20077;-60
2021/12/11 01:47:05;;;;;;;2.00;1.30;;;;;;;;;;4987901;28;20405;-62
2021/12/11 01:49:53;;;;;;;3.70;1.67;;;;;;;;;;4986496;28;20042;-59
2021/12/11 01:52:59;;;;;;;3.10;1.30;;;;;;;;;;4986633;28;20036;-62
2021/12/11 01:55:47;;;;;;;1.58;1.20;;;;;;;;;;4963073;28;20493;-61
2021/12/11 01:58:39;;;;;;;2.08;1.30;;;;;;;;;;4961737;28;20042;-62
2021/12/11 02:01:28;;;;;;;1.55;1.35;;;;;;;;;;4944650;28;20070;-61
2021/12/11 02:04:16;;;;;;;2.55;1.55;;;;;;;;;;4966944;28;20041;-62
2021/12/11 02:07:07;;;;;;;2.28;1.50;;;;;;;;;;4968509;28;20498;-61
2021/12/11 02:09:58;;;;;;;1.88;1.40;;;;;;;;;;4974646;28;20542;-62
2021/12/11 02:12:44;;;;;;;2.35;1.70;;;;;;;;;;4986480;28;20042;-62
2021/12/11 02:15:35;;;;;;;2.03;1.30;;;;;;;;;;4987793;28;20041;-62
2021/12/11 02:18:23;;;;;;;0.90;0.90;;;;;;;;;;4988542;28;20038;-62
2021/12/11 02:21:11;;;;;;;1.88;1.02;;;;;;;;;;4988317;28;20043;-61
2021/12/11 02:24:02;;;;;;;1.20;0.80;;;;;;;;;;4967621;28;20462;-62
2021/12/11 02:26:48;;;;;;;0.85;0.85;;;;;;;;;;4962992;28;20154;-62
2021/12/11 02:29:37;;;;;;;1.13;0.77;;;;;;;;;;4976838;28;20062;-61
2021/12/11 02:32:31;;;;;;;1.92;1.17;;;;;;;;;;4964922;28;20031;-66
2021/12/11 02:35:30;;;;;;;0.93;0.93;;;;;;;;;;4985371;28;20367;-64
2021/12/11 02:38:27;;;;;;;0.70;0.70;;;;;;;;;;4973628;28;20038;-64
2021/12/11 02:41:21;;;;;;;2.35;0.80;;;;;;;;;;4985204;28;20102;-64
2021/12/11 02:44:10;;;;;;;1.00;1.00;;;;;;;;;;4984380;28;20039;-65
2021/12/11 02:46:56;;;;;;;0.90;0.90;;;;;;;;;;4972641;28;20042;-61
2021/12/11 02:49:47;;;;;;;1.40;0.60;;;;;;;;;;4987126;28;20074;-63
2021/12/11 02:52:38;;;;;;;2.40;0.82;;;;;;;;;;4987564;28;20061;-66
2021/12/11 02:55:24;;;;;;;0.75;0.70;;;;;;;;;;4976877;28;20041;-66
2021/12/11 02:58:14;;;;;;;1.63;1.48;;;;;;;;;;4990263;28;20370;-65
2021/12/11 03:01:04;;;;;;;1.15;1.00;;;;;;;;;;4991255;28;20445;-66
2021/12/11 03:03:58;;;;;;;2.63;1.20;;;;;;;;;;4991437;28;20030;-66
2021/12/11 03:06:46;;;;;;;0.80;0.70;;;;;;;;;;4991447;28;20096;-60
2021/12/11 03:09:34;;;;;;;1.95;1.55;;;;;;;;;;4990812;28;20110;-62
2021/12/11 03:12:20;;;;;;;1.00;1.00;;;;;;;;;;4991756;28;20035;-62
2021/12/11 03:15:07;;;;;;;1.60;0.95;;;;;;;;;;4991593;28;20465;-62
2021/12/11 03:17:53;;;;;;;0.77;0.77;;;;;;;;;;4989409;28;20034;-66
2021/12/11 03:24:02;;;;;;;0.93;0.93;;;;;;;;;;4990431;28;20125;-61
2021/12/11 03:26:49;;;;;;;1.40;1.30;;;;;;;;;;5013298;23;20053;-66
2021/12/11 03:29:34;;;;;;;1.10;1.00;;;;;;;;;;4955200;28;20043;-67
2021/12/11 03:32:21;;;;;;;1.00;0.90;;;;;;;;;;4921594;28;20111;-68
2021/12/11 03:35:07;;;;;;;1.20;1.10;;;;;;;;;;4915614;28;20034;-66
2021/12/11 03:37:53;;;;;;;1.58;1.15;;;;;;;;;;4907304;29;20122;-67
2021/12/11 03:40:39;;;;;;;0.90;0.70;;;;;;;;;;4879535;29;20119;-68
2021/12/11 03:43:28;;;;;;;1.17;0.95;;;;;;;;;;4883644;29;20047;-70
2021/12/11 03:46:13;;;;;;;1.80;1.13;;;;;;;;;;4851847;29;20030;-74
2021/12/11 03:49:00;;;;;;;1.38;1.10;;;;;;;;;;4828154;29;20042;-74
2021/12/11 03:51:48;;;;;;;2.63;1.20;;;;;;;;;;4850724;29;20034;-78
2021/12/11 03:54:35;;;;;;;1.27;1.13;;;;;;;;;;4859925;29;20483;-74
2021/12/11 03:57:23;;;;;;;2.58;1.27;;;;;;;;;;4795366;29;20360;-74
2021/12/11 04:00:11;;;;;;;1.27;1.17;;;;;;;;;;4803605;29;20491;-74
2021/12/11 04:03:03;;;;;;;1.85;1.20;;;;;;;;;;4821123;29;20131;-67
2021/12/11 04:05:49;;;;;;;2.17;1.30;;;;;;;;;;4857146;29;20071;-65
2021/12/11 04:08:40;;;;;;;1.40;1.30;;;;;;;;;;4819813;29;20049;-65
2021/12/11 04:11:28;;;;;;;2.63;1.33;;;;;;;;;;4767369;29;20030;-68
2021/12/11 04:14:16;;;;;;;0.90;0.90;;;;;;;;;;4803861;29;20039;-67
2021/12/11 04:17:03;;;;;;;1.33;1.10;;;;;;;;;;4782969;29;20042;-66
2021/12/11 04:19:49;;;;;;;1.75;1.48;;;;;;;;;;4843060;29;20088;-75
2021/12/11 04:22:34;;;;;;;2.17;1.60;;;;;;;;;;4839885;29;20063;-72
2021/12/11 04:25:20;;;;;;;1.50;1.38;;;;;;;;;;4867306;29;20029;-71
2021/12/11 04:28:06;;;;;;;3.17;1.58;;;;;;;;;;4873750;29;20503;-70
2021/12/11 04:30:54;;;;;;;1.80;1.70;;;;;;;;;;4861188;29;20041;-70
2021/12/11 04:33:46;;;;;;;2.13;1.65;;;;;;;;;;4870844;29;20028;-70
2021/12/11 04:36:33;;;;;;;1.98;1.48;;;;;;;;;;4853467;29;20077;-70
2021/12/11 04:39:20;;;;;;;2.15;1.70;;;;;;;;;;4854506;29;20046;-66
2021/12/11 04:43:11;;;;;;;2.90;2.13;;;;;;;;;;4840368;29;20185;-75
2021/12/11 04:45:35;;;;;;;2.97;1.67;;;;;;;;;;4825185;29;20036;-71
2021/12/11 04:54:58;;;;;;;3.17;2.13;;;;;;;;;;4853474;29;20093;-72
2021/12/11 04:58:01;;;;;;;2.78;2.08;;;;;;;;;;4850427;29;20060;-66
2021/12/11 05:01:29;;;;;;;3.38;2.35;;;;;;;;;;4842354;29;20544;-73
2021/12/11 05:04:35;;;;;;;3.20;2.42;;;;;;;;;;4863307;29;20169;-74
2021/12/11 05:10:15;;;;;;;3.28;2.10;;;;;;;;;;4899980;29;20056;-71
2021/12/11 05:13:00;;;;;;;2.67;2.25;;;;;;;;;;4895681;29;21551;-71
2021/12/11 05:15:47;;;;;;;2.53;2.33;;;;;;;;;;4905681;29;20037;-72
2021/12/11 05:18:34;;;;;;;2.80;2.50;;;;;;;;;;4893429;29;20228;-69
2021/12/11 05:21:20;;;;;;;2.90;2.60;;;;;;;;;;4894796;29;20555;-71
2021/12/11 05:24:06;;;;;;;4.00;3.30;;;;;;;;;;4909517;29;20095;-71
2021/12/11 05:26:51;;;;;;;3.10;2.50;;;;;;;;;;4940970;28;20437;-72
2021/12/11 05:29:36;;;;;;;3.22;2.63;;;;;;;;;;4898753;29;20677;-72
2021/12/11 05:32:23;;;;;;;2.65;2.38;;;;;;;;;;4914382;28;20032;-72
2021/12/11 05:35:10;;;;;;;4.55;3.65;;;;;;;;;;4897649;29;20040;-73
2021/12/11 05:37:57;;;;;;;3.33;2.88;;;;;;;;;;4920572;28;20039;-68
2021/12/11 05:40:43;;;;;;;3.45;2.72;;;;;;;;;;4919276;28;20256;-66
2021/12/11 05:43:29;;;;;;;3.88;2.97;;;;;;;;;;4899196;29;20144;-69
2021/12/11 05:46:15;;;;;;;2.42;2.00;;;;;;;;;;4939389;28;20063;-66
2021/12/11 05:49:00;;;;;;;3.92;2.80;;;;;;;;;;4929863;28;20039;-66
2021/12/11 05:51:47;;;;;;;3.20;2.38;;;;;;;;;;4896090;29;20131;-74
2021/12/11 05:54:33;;;;;;;3.22;2.50;;;;;;;;;;4923621;28;20031;-66
2021/12/11 05:57:20;;;;;;;3.90;2.83;;;;;;;;;;4893947;29;20134;-68
2021/12/11 06:00:07;;;;;;;4.70;2.85;;;;;;;;;;4915762;28;20738;-67
2021/12/11 06:02:52;;;;;;;3.78;2.80;;;;;;;;;;4938300;28;20126;-69
2021/12/11 06:05:38;;;;;;;3.45;2.60;;;;;;;;;;4917330;29;20063;-67
2021/12/11 06:08:23;;;;;;;3.72;2.60;;;;;;;;;;4916721;28;20028;-67
2021/12/11 06:11:10;;;;;;;2.80;2.13;;;;;;;;;;4873168;29;20029;-68
2021/12/11 06:13:55;;;;;;;3.05;2.05;;;;;;;;;;4890136;29;20087;-67
2021/12/11 06:16:40;;;;;;;3.33;2.47;;;;;;;;;;4914223;29;20629;-66
2021/12/11 06:19:27;;;;;;;2.90;2.42;;;;;;;;;;4909450;28;20047;-68
2021/12/11 06:22:13;;;;;;;3.40;2.47;;;;;;;;;;4887295;29;20039;-67
2021/12/11 06:24:59;;;;;;;5.65;3.45;;;;;;;;;;4922166;28;20406;-67
2021/12/11 06:27:46;;;;;;;5.40;3.53;;;;;;;;;;4925469;29;20519;-75
2021/12/11 06:30:31;;;;;;;3.30;2.63;;;;;;;;;;4951056;28;20035;-74
2021/12/11 06:33:16;;;;;;;4.80;3.13;;;;;;;;;;4937422;28;20176;-74
2021/12/11 06:36:07;;;;;;;11.70;8.10;;;;;;;;;;4925546;29;20043;-75
2021/12/11 06:38:54;;;;;;;4.82;3.33;;;;;;;;;;4939935;28;20055;-74
2021/12/11 06:41:41;;;;;;;3.13;2.80;;;;;;;;;;4913599;29;20040;-73
2021/12/11 06:44:29;;;;;;;7.07;4.75;;;;;;;;;;4872814;29;20052;-75
2021/12/11 06:47:15;;;;;;;5.72;4.53;;;;;;;;;;4882253;29;20563;-75
2021/12/11 06:50:05;;;;;;;5.70;4.18;;;;;;;;;;4876688;29;20064;-67
2021/12/11 06:52:53;;;;;;;5.70;3.88;;;;;;;;;;4897488;29;20063;-69
2021/12/11 06:55:38;;;;;;;6.25;5.00;;;;;;;;;;4887036;29;20082;-66
2021/12/11 06:58:25;;;;;;;7.13;4.72;;;;;;;;;;4853019;29;20035;-69
2021/12/11 07:01:10;;;;;;;6.97;5.10;;;;;;;;;;4884736;29;20038;-72
2021/12/11 07:03:57;;;;;;;5.30;3.95;;;;;;;;;;4843099;29;20081;-68
2021/12/11 07:06:50;;;;;;;8.10;5.10;;;;;;;;;;4816249;29;20109;-74
2021/12/11 07:09:37;;;;;;;7.15;5.35;;;;;;;;;;4825854;29;20040;-71
2021/12/11 07:12:24;;;;;;;8.55;6.07;;;;;;;;;;4878751;29;20036;-70
2021/12/11 07:15:10;;;;;;;8.02;5.88;;;;;;;;;;4857805;29;20025;-73
2021/12/11 07:17:55;;;;;;;8.60;6.30;;;;;;;;;;4876855;29;20036;-71
2021/12/11 07:20:40;;;;;;;10.43;5.93;;;;;;;;;;4863387;29;20485;-70
2021/12/11 07:23:26;;;;;;;13.60;9.07;;;;;;;;;;4903216;28;20179;-71
2021/12/11 07:26:16;;;;;;;7.45;4.88;;;;;;;;;;4864737;29;20037;-76
2021/12/11 07:29:10;;;;;;;7.07;5.70;;;;;;;;;;4863179;29;20039;-74
2021/12/11 07:31:55;;;;;;;9.85;6.50;;;;;;;;;;4843632;29;20041;-75
2021/12/11 07:34:41;;;;;;;8.60;6.88;;;;;;;;;;4820698;29;20073;-75
2021/12/11 07:37:26;;;;;;;7.85;5.88;;;;;;;;;;4797946;29;20077;-74
2021/12/11 07:40:12;;;;;;;7.97;6.40;;;;;;;;;;4745692;29;20034;-75
2021/12/11 07:42:57;;;;;;;7.53;5.70;;;;;;;;;;4838123;29;20072;-72
2021/12/11 07:45:43;;;;;;;10.40;5.47;;;;;;;;;;4847713;29;20482;-68
2021/12/11 07:48:29;;;;;;;6.78;5.10;;;;;;;;;;4850598;29;20065;-73
2021/12/11 07:51:15;;;;;;;8.35;6.25;;;;;;;;;;4838319;29;20041;-66
2021/12/11 07:54:00;;;;;;;7.55;5.65;;;;;;;;;;4819635;29;20485;-68
2021/12/11 07:56:45;;;;;;;9.73;6.65;;;;;;;;;;4871851;29;20033;-69
2021/12/11 07:59:31;;;;;;;11.73;9.57;;;;;;;;;;4906964;29;20906;-79
2021/12/11 08:02:16;;;;;;;15.70;11.02;;;;;;;;;;4880611;29;20712;-71
2021/12/11 08:05:02;;;;;;;9.32;6.72;;;;;;;;;;4863968;29;20409;-76
2021/12/11 08:07:48;;;;;;;10.15;6.82;;;;;;;;;;4847049;29;20540;-74
2021/12/11 08:10:34;;;;;;;13.32;8.02;;;;;;;;;;4863510;29;20834;-72
2021/12/11 08:13:19;;;;;;;12.25;8.35;;;;;;;;;;4859365;29;20037;-73
2021/12/11 08:16:05;;;;;;;11.18;7.40;;;;;;;;;;4842944;29;20030;-73
2021/12/11 08:18:53;;;;;;;11.60;8.90;;;;;;;;;;4840590;29;20037;-72
2021/12/11 08:21:38;;;;;;;10.90;8.05;;;;;;;;;;4838777;29;20084;-70
2021/12/11 08:24:27;;;;;;;14.05;8.07;;;;;;;;;;4838902;29;20128;-71
2021/12/11 08:27:15;;;;;;;13.80;9.13;;;;;;;;;;4864574;29;20474;-71
2021/12/11 08:30:00;;;;;;;10.60;7.88;;;;;;;;;;4805899;29;20040;-71
2021/12/11 08:32:45;;;;;;;16.33;8.82;;;;;;;;;;4836958;29;20028;-71
2021/12/11 08:35:31;;;;;;;11.95;8.48;;;;;;;;;;4852349;29;20043;-71
2021/12/11 08:38:17;;;;;;;15.38;9.88;;;;;;;;;;4867692;29;20029;-67
2021/12/11 08:41:04;;;;;;;13.52;8.48;;;;;;;;;;4922428;28;20031;-72
2021/12/11 08:43:57;;;;;;;13.48;8.98;;;;;;;;;;4917399;28;20039;-73
2021/12/11 08:46:45;;;;;;;15.80;11.15;;;;;;;;;;4942410;28;20034;-72
2021/12/11 08:49:32;;;;;;;10.68;8.18;;;;;;;;;;4918995;29;20040;-76
2021/12/11 08:52:20;;;;;;;13.63;9.73;;;;;;;;;;4901749;29;20491;-76
2021/12/11 08:55:07;;;;;;;15.80;9.13;;;;;;;;;;4904981;29;20031;-74
2021/12/11 08:57:53;;;;;;;14.50;9.95;;;;;;;;;;4882318;29;20060;-76
2021/12/11 09:00:38;;;;;;;11.98;8.95;;;;;;;;;;4885946;29;20116;-75
2021/12/11 09:03:23;;;;;;;13.63;9.77;;;;;;;;;;4873890;29;20021;-80
2021/12/11 09:06:12;;;;;;;13.77;10.27;;;;;;;;;;4902638;28;20047;-82
2021/12/11 09:09:00;;;;;;;13.48;8.75;;;;;;;;;;4896596;29;20472;-78
2021/12/11 09:11:53;;;;;;;12.30;8.40;;;;;;;;;;4854795;29;20108;-74
2021/12/11 09:14:44;;;;;;;11.32;8.50;;;;;;;;;;4896324;29;20511;-68
2021/12/11 09:17:29;;;;;;;15.10;9.30;;;;;;;;;;4914131;29;20031;-78
2021/12/11 09:20:20;;;;;;;12.93;9.70;;;;;;;;;;4839658;29;20071;-76
2021/12/11 09:23:08;;;;;;;12.02;7.90;;;;;;;;;;4877998;29;20036;-75
2021/12/11 09:25:59;;;;;;;10.90;7.30;;;;;;;;;;4856261;29;20043;-75
2021/12/11 09:28:47;;;;;;;11.27;8.35;;;;;;;;;;4856383;29;20045;-71
2021/12/11 09:31:38;;;;;;;11.70;8.85;;;;;;;;;;4845594;29;20026;-70
2021/12/11 09:34:27;;;;;;;11.27;7.78;;;;;;;;;;4847143;29;20267;-71
2021/12/11 09:37:13;;;;;;;18.87;13.57;;;;;;;;;;4834759;29;20037;-66
2021/12/11 09:40:00;;;;;;;22.23;15.48;;;;;;;;;;4846119;29;20048;-68
2021/12/11 09:42:45;;;;;;;10.90;7.70;;;;;;;;;;4889171;29;20024;-67
2021/12/11 09:45:33;;;;;;;9.82;7.20;;;;;;;;;;4913825;29;20024;-69
2021/12/11 09:48:18;;;;;;;9.38;6.70;;;;;;;;;;4898493;29;20039;-67
2021/12/11 09:51:09;;;;;;;11.60;7.40;;;;;;;;;;4863323;29;20116;-70
2021/12/11 09:53:56;;;;;;;10.68;7.35;;;;;;;;;;4831622;29;20054;-70
2021/12/11 09:56:45;;;;;;;9.68;6.60;;;;;;;;;;4832023;29;20038;-69
2021/12/11 09:59:31;;;;;;;9.45;6.38;;;;;;;;;;4790237;29;20050;-69
2021/12/11 10:02:19;;;;;;;11.18;6.80;;;;;;;;;;4837708;29;20041;-70
2021/12/11 10:05:12;;;;;;;9.90;6.95;;;;;;;;;;4836260;29;20497;-70
2021/12/11 10:08:25;;;;;;;10.68;6.85;;;;;;;;;;4790142;29;20035;-70
2021/12/11 10:11:07;;;;;;;9.38;6.82;;;;;;;;;;4844669;29;20052;-69
2021/12/11 10:13:52;;;;;;;12.07;6.93;;;;;;;;;;4819146;29;20560;-69
2021/12/11 10:16:40;;;;;;;8.73;5.57;;;;;;;;;;4845465;29;20047;-68
2021/12/11 10:19:29;;;;;;;8.43;5.25;;;;;;;;;;4853187;29;20042;-68
2021/12/11 10:22:20;;;;;;;9.18;5.68;;;;;;;;;;4840769;29;20465;-67
2021/12/11 10:25:09;;;;;;;6.72;4.80;;;;;;;;;;4848427;29;20036;-68
2021/12/11 10:27:55;;;;;;;30.30;20.70;;;;;;;;;;4843082;29;20576;-72
2021/12/11 10:30:44;;;;;;;10.10;7.15;;;;;;;;;;4812555;29;20046;-72
2021/12/11 10:33:31;;;;;;;10.25;6.28;;;;;;;;;;4776462;29;20049;-73
2021/12/11 10:36:19;;;;;;;7.82;5.20;;;;;;;;;;4793612;29;20041;-75
2021/12/11 10:39:06;;;;;;;8.38;5.72;;;;;;;;;;4801267;29;20407;-74
2021/12/11 10:41:51;;;;;;;8.93;5.70;;;;;;;;;;4798111;29;20058;-72
2021/12/11 10:44:39;;;;;;;9.38;6.40;;;;;;;;;;4818536;29;20520;-73
2021/12/11 10:47:29;;;;;;;8.40;5.35;;;;;;;;;;4807141;29;20125;-68
2021/12/11 10:50:14;;;;;;;;;;;;;;;;;;4823809;29;20030;-68
2021/12/11 10:53:00;;;;;;;8.63;5.53;;;;;;;;;;4828656;29;19916;-69
2021/12/11 10:55:46;;;;;;;9.50;5.70;;;;;;;;;;4788960;29;20475;-66
2021/12/11 10:58:34;;;;;;;9.35;6.32;;;;;;;;;;4783831;29;20033;-69
2021/12/11 11:01:29;;;;;;;9.27;6.00;;;;;;;;;;4828002;29;20124;-68
2021/12/11 11:04:19;;;;;;;8.43;5.45;;;;;;;;;;4819371;29;20035;-69
2021/12/11 11:07:05;;;;;;;8.68;5.65;;;;;;;;;;4799221;29;20039;-67
2021/12/11 11:09:51;;;;;;;6.78;4.90;;;;;;;;;;4825918;29;20045;-66
2021/12/11 11:12:36;;;;;;;9.52;5.38;;;;;;;;;;4838748;29;20351;-68
2021/12/11 11:15:23;;;;;;;6.93;4.43;;;;;;;;;;4845510;29;20059;-67
2021/12/11 11:18:09;;;;;;;8.18;5.25;;;;;;;;;;4861805;29;20041;-67
2021/12/11 11:21:01;;;;;;;8.60;4.97;;;;;;;;;;4865525;29;20039;-67
2021/12/11 11:23:47;;;;;;;8.18;4.55;;;;;;;;;;4850017;29;20425;-78
2021/12/11 11:26:34;;;;;;;16.00;10.13;;;;;;;;;;4860291;29;20472;-70
2021/12/11 11:29:20;;;;;;;9.77;6.15;;;;;;;;;;4868979;29;20037;-71
2021/12/11 11:32:08;;;;;;;9.13;4.88;;;;;;;;;;4897680;29;20489;-70
2021/12/11 11:34:53;;;;;;;7.60;4.45;;;;;;;;;;4830265;29;20052;-70
2021/12/11 11:37:39;;;;;;;6.93;4.68;;;;;;;;;;4853432;29;20116;-70
2021/12/11 11:40:27;;;;;;;7.97;4.97;;;;;;;;;;4888615;29;20036;-67
2021/12/11 11:43:13;;;;;;;8.40;5.07;;;;;;;;;;4906897;29;20511;-69
2021/12/11 11:45:58;;;;;;;7.35;4.95;;;;;;;;;;4892376;29;20074;-72
2021/12/11 11:48:46;;;;;;;7.80;4.72;;;;;;;;;;4918403;29;20040;-74
2021/12/11 11:51:36;;;;;;;7.25;4.88;;;;;;;;;;4917731;28;20101;-73
2021/12/11 11:54:23;;;;;;;8.75;5.03;;;;;;;;;;4910266;28;20046;-72
2021/12/11 11:57:12;;;;;;;7.60;4.90;;;;;;;;;;4910811;28;20059;-76
2021/12/11 11:59:58;;;;;;;8.30;5.65;;;;;;;;;;4930923;28;20042;-69
2021/12/11 12:02:43;;;;;;;8.73;5.50;;;;;;;;;;4927123;28;20039;-81
2021/12/11 12:05:31;;;;;;;7.47;4.88;;;;;;;;;;4954596;28;20478;-80
2021/12/11 12:08:16;;;;;;;6.55;4.13;;;;;;;;;;4958774;28;20023;-81
2021/12/11 12:11:02;;;;;;;9.15;5.25;;;;;;;;;;4952879;28;20050;-80
2021/12/11 12:13:47;;;;;;;9.18;4.88;;;;;;;;;;4927284;28;20086;-78
2021/12/11 12:16:34;;;;;;;8.10;5.00;;;;;;;;;;4939484;28;20070;-80
2021/12/11 12:19:20;;;;;;;12.05;4.82;;;;;;;;;;4954257;28;20026;-73
2021/12/11 12:22:08;;;;;;;9.85;5.25;;;;;;;;;;4946938;28;20035;-73
2021/12/11 12:24:55;;;;;;;7.95;4.55;;;;;;;;;;4958633;28;20031;-73
2021/12/11 12:27:42;;;;;;;8.52;4.85;;;;;;;;;;4940412;28;20115;-72
2021/12/11 12:30:32;;;;;;;8.07;5.13;;;;;;;;;;4960558;28;20038;-70
2021/12/11 12:33:17;;;;;;;6.30;4.28;;;;;;;;;;4976714;28;20542;-70
2021/12/11 12:36:04;;;;;;;7.43;4.57;;;;;;;;;;4966420;28;20176;-72
2021/12/11 12:38:50;;;;;;;6.43;4.28;;;;;;;;;;4953316;28;20126;-74
2021/12/11 12:41:38;;;;;;;9.65;4.78;;;;;;;;;;4919481;28;20091;-75
2021/12/11 12:44:25;;;;;;;8.43;4.88;;;;;;;;;;4947181;28;20073;-73
2021/12/11 12:47:31;;;;;;;9.13;5.22;;;;;;;;;;4939480;28;20529;-73
2021/12/11 12:50:18;;;;;;;8.27;5.60;;;;;;;;;;4931915;28;20039;-73
2021/12/11 12:53:03;;;;;;;8.05;5.40;;;;;;;;;;4958948;28;20652;-74
2021/12/11 12:55:55;;;;;;;8.88;5.88;;;;;;;;;;4932994;28;20039;-71
2021/12/11 12:58:43;;;;;;;9.50;5.60;;;;;;;;;;4912945;29;20023;-68
2021/12/11 13:01:49;;;;;;;9.65;5.47;;;;;;;;;;4895970;29;20056;-68
2021/12/11 13:04:37;;;;;;;7.95;4.97;;;;;;;;;;4872184;29;20041;-70
2021/12/11 13:07:23;;;;;;;7.22;4.25;;;;;;;;;;4862256;29;20099;-67
2021/12/11 13:10:10;;;;;;;7.38;5.32;;;;;;;;;;4875406;29;20041;-68
2021/12/11 13:12:56;;;;;;;8.63;4.72;;;;;;;;;;4892250;29;20070;-73
2021/12/11 13:15:47;;;;;;;7.43;4.10;;;;;;;;;;4910112;29;20036;-78
2021/12/11 13:18:34;;;;;;;8.98;4.70;;;;;;;;;;4878987;29;20099;-77
2021/12/11 13:21:22;;;;;;;6.95;5.05;;;;;;;;;;4867747;29;20709;-77
2021/12/11 13:24:10;;;;;;;19.75;12.35;;;;;;;;;;4845396;29;20109;-78
2021/12/11 13:26:58;;;;;;;8.45;5.03;;;;;;;;;;4879537;29;20456;-79
2021/12/11 13:29:44;;;;;;;5.82;4.18;;;;;;;;;;4895274;29;20032;-77
2021/12/11 13:32:31;;;;;;;8.57;4.65;;;;;;;;;;4938230;28;20424;-72
2021/12/11 13:35:19;;;;;;;7.95;4.00;;;;;;;;;;4957238;28;20045;-76
2021/12/11 13:38:06;;;;;;;8.23;4.93;;;;;;;;;;4927138;28;20498;-73
2021/12/11 13:40:53;;;;;;;7.35;4.18;;;;;;;;;;4906767;29;20039;-72
2021/12/11 13:43:41;;;;;;;10.30;4.47;;;;;;;;;;4923799;29;21192;-71
2021/12/11 13:46:26;;;;;;;12.02;4.78;;;;;;;;;;4903257;29;20476;-74
2021/12/11 13:49:12;;;;;;;5.68;3.92;;;;;;;;;;4898969;29;20460;-72
2021/12/11 13:51:57;;;;;;;8.30;4.93;;;;;;;;;;4907634;29;20040;-73
2021/12/11 13:54:43;;;;;;;6.53;4.28;;;;;;;;;;4908178;29;20024;-75
2021/12/11 13:57:28;;;;;;;8.18;5.00;;;;;;;;;;4872050;29;20033;-71
2021/12/11 14:00:23;;;;;;;6.90;4.40;;;;;;;;;;4858465;29;20037;-73
2021/12/11 14:03:11;;;;;;;7.00;4.32;;;;;;;;;;4792326;29;20130;-73
2021/12/11 14:05:59;;;;;;;6.78;4.25;;;;;;;;;;4862019;29;20041;-73
2021/12/11 14:08:45;;;;;;;14.05;8.35;;;;;;;;;;4885234;29;20104;-74
2021/12/11 14:11:31;;;;;;;7.97;5.25;;;;;;;;;;4873240;29;20032;-75
2021/12/11 14:14:18;;;;;;;6.88;4.75;;;;;;;;;;4868565;29;20034;-74
2021/12/11 14:17:03;;;;;;;7.03;4.65;;;;;;;;;;4871517;29;20395;-73
2021/12/11 14:19:48;;;;;;;9.48;5.30;;;;;;;;;;4885397;28;20128;-72
2021/12/11 14:22:36;;;;;;;7.55;4.53;;;;;;;;;;4938203;28;20041;-71
2021/12/11 14:25:22;;;;;;;7.22;4.72;;;;;;;;;;4932743;28;20119;-71
2021/12/11 14:28:10;;;;;;;6.97;4.88;;;;;;;;;;4916144;29;20043;-69
2021/12/11 14:31:07;;;;;;;7.90;4.90;;;;;;;;;;4922664;28;20046;-72
2021/12/11 14:33:53;;;;;;;7.00;4.65;;;;;;;;;;4933168;28;20642;-70
2021/12/11 14:36:38;;;;;;;8.38;5.93;;;;;;;;;;4936872;28;22285;-72
2021/12/11 14:39:25;;;;;;;8.57;5.38;;;;;;;;;;4980548;28;20392;-70
2021/12/11 14:42:10;;;;;;;8.77;5.95;;;;;;;;;;4997122;28;20482;-71
2021/12/11 14:44:58;;;;;;;9.23;6.20;;;;;;;;;;4972983;28;20065;-73
2021/12/11 14:47:45;;;;;;;10.55;5.80;;;;;;;;;;4979417;28;20099;-70
2021/12/11 14:50:32;;;;;;;20.38;13.18;;;;;;;;;;4984953;28;20056;-72
2021/12/11 14:53:19;;;;;;;34.35;21.13;;;;;;;;;;4997422;28;20029;-70
2021/12/11 14:56:16;;;;;;;15.20;9.70;;;;;;;;;;4961966;28;20089;-70
2021/12/11 14:59:05;;;;;;;9.55;6.32;;;;;;;;;;4947622;28;20034;-69
2021/12/11 15:01:53;;;;;;;8.13;5.47;;;;;;;;;;4985902;28;20118;-70
2021/12/11 15:04:41;;;;;;;9.65;6.30;;;;;;;;;;4971177;28;20042;-67
2021/12/11 15:07:29;;;;;;;9.48;6.05;;;;;;;;;;4969919;28;20035;-70
2021/12/11 15:10:27;;;;;;;9.13;6.72;;;;;;;;;;4981258;28;20045;-70
2021/12/11 15:13:12;;;;;;;8.38;5.80;;;;;;;;;;4990044;28;20045;-72
2021/12/11 15:15:58;;;;;;;8.85;6.38;;;;;;;;;;4968382;28;20100;-71
2021/12/11 15:18:44;;;;;;;9.27;6.35;;;;;;;;;;4995608;28;20046;-70
2021/12/11 15:21:31;;;;;;;13.00;7.55;;;;;;;;;;4988632;28;20081;-74
2021/12/11 15:24:16;;;;;;;10.10;6.80;;;;;;;;;;4989037;28;20078;-71
2021/12/11 15:27:04;;;;;;;9.88;6.10;;;;;;;;;;4977437;28;20062;-70
2021/12/11 15:29:49;;;;;;;10.68;7.10;;;;;;;;;;4957530;28;20030;-71
2021/12/11 15:32:35;;;;;;;10.48;7.13;;;;;;;;;;4949017;28;20074;-70
2021/12/11 15:35:26;;;;;;;12.05;7.00;;;;;;;;;;4952263;28;20030;-71
2021/12/11 15:38:11;;;;;;;11.48;7.85;;;;;;;;;;4959555;28;20046;-70
2021/12/11 15:40:58;;;;;;;10.02;6.90;;;;;;;;;;4927743;28;20103;-73
2021/12/11 15:43:46;;;;;;;12.45;7.65;;;;;;;;;;4917304;29;20036;-79
2021/12/11 15:46:31;;;;;;;11.70;7.18;;;;;;;;;;4909621;29;20039;-78
2021/12/11 15:49:16;;;;;;;12.23;7.32;;;;;;;;;;4923022;29;20078;-79
2021/12/11 15:52:02;;;;;;;11.98;7.78;;;;;;;;;;4925617;28;20131;-80
2021/12/11 15:54:48;;;;;;;10.93;6.95;;;;;;;;;;4891703;29;20043;-76
2021/12/11 15:57:33;;;;;;;9.88;7.10;;;;;;;;;;4875675;29;20063;-79
2021/12/11 16:00:20;;;;;;;11.05;7.50;;;;;;;;;;4902585;29;20042;-72
2021/12/11 16:03:06;;;;;;;13.27;8.05;;;;;;;;;;4875595;29;20034;-73
2021/12/11 16:05:52;;;;;;;11.50;7.22;;;;;;;;;;4868796;29;20049;-74
2021/12/11 16:08:37;;;;;;;11.20;7.57;;;;;;;;;;4878497;29;20078;-76
2021/12/11 16:11:23;;;;;;;13.35;7.90;;;;;;;;;;4850200;29;20029;-77
2021/12/11 16:14:10;;;;;;;13.07;8.65;;;;;;;;;;4865232;29;20044;-77
2021/12/11 16:16:59;;;;;;;13.57;9.55;;;;;;;;;;4860004;29;20040;-73
2021/12/11 16:19:48;;;;;;;13.02;9.15;;;;;;;;;;4863791;29;20039;-74
2021/12/11 16:22:37;;;;;;;12.40;9.02;;;;;;;;;;4888941;28;20390;-72
2021/12/11 16:25:24;;;;;;;15.05;9.07;;;;;;;;;;4908498;28;20039;-73
2021/12/11 16:28:10;;;;;;;16.38;9.23;;;;;;;;;;4890060;29;20127;-73
2021/12/11 16:30:57;;;;;;;13.50;8.63;;;;;;;;;;4914189;28;20124;-75
2021/12/11 16:33:42;;;;;;;12.32;7.70;;;;;;;;;;4882589;29;20397;-72
2021/12/11 16:36:28;;;;;;;11.35;7.32;;;;;;;;;;4892866;29;20096;-76
2021/12/11 16:39:14;;;;;;;13.02;8.68;;;;;;;;;;4866850;29;20048;-72
2021/12/11 16:42:01;;;;;;;12.25;8.40;;;;;;;;;;4890335;29;20043;-72
2021/12/11 16:44:46;;;;;;;13.23;8.65;;;;;;;;;;4908071;29;20678;-74
2021/12/11 16:47:31;;;;;;;13.05;9.02;;;;;;;;;;4908939;29;20091;-74
2021/12/11 16:50:18;;;;;;;14.63;8.18;;;;;;;;;;4895649;29;20036;-75
2021/12/11 16:53:04;;;;;;;12.98;7.90;;;;;;;;;;4933141;28;20051;-73
2021/12/11 16:55:51;;;;;;;14.90;10.65;;;;;;;;;;4894434;29;20457;-75
2021/12/11 16:58:38;;;;;;;16.27;11.40;;;;;;;;;;4844251;29;20052;-73